Southington, CT

12:07 PM EDT on August 27, 2014 (GMT -0400)
Meriden Markham Municipal | Change Station
CLOSE
Current Station
Airport
Location: Meriden,
Elevation: 102 ft
Nearby Weather Stations
Active Advisory: Air Quality Alert

Elev 102 ft 41.51 °N, 72.83 °W | Updated 14 minutes ago

Clear
Clear
83 °F
Feels Like 85 °F
N
10
Wind Variable Wind from South

Today
High -- | Low -- °F
--% Chance of Precip.
Yesterday
High -- | Low -- °F
Precip. -- in
6:12 AM 7:32 PM
Waxing Crescent, 4% visible
Pressure 29.98 in
Visibility 10.0 miles
Clouds Clear
Heat Index 85 °F
Dew Point 66 °F
Humidity 56%
Rainfall 0.00 in
Snow Depth Not available.
UV 9 out of 12
Pollen 9.30 out of 12
Ozone Good
Flu Activity Not available.
METAR KMMK 271553Z AUTO 17009KT 10SM CLR 28/19 A2998 RMK AO2 SLP152 T02830189 TSNO

More Conditions Fewer Conditions

Pressure 29.98 in
Visibility 10.0 miles
Clouds Clear
Heat Index 85 °F
Dew Point 66 °F
Humidity 56%
Rainfall 0.00 in
Snow Depth Not available.
UV 9 out of 12
Pollen 9.30 out of 12
Ozone Good
Flu Activity Not available.
METAR KMMK 271553Z AUTO 17009KT 10SM CLR 28/19 A2998 RMK AO2 SLP152 T02830189 TSNO

More Conditions Fewer Conditions

10-Day Weather Forecast

Almanac

Astronomy

Aug. 27, 2014 Rise Set
Actual Time 6:12 AM EDT 7:32 PM EDT
Civil Twilight 5:43 AM EDT 8:01 PM EDT
Nautical Twilight 5:08 AM EDT 8:36 PM EDT
Astronomical Twilight 4:32 AM EDT 9:12 PM EDT
Moon 8:07 AM EDT 8:21 PM EDT
Length of Visible Light 14h 18m
Length of Day
13h 20m
Tomorrow will be 2m 37s shorter.
Waxing Crescent, 4% of the Moon is Illuminated
Today
Waxing Crescent
Sep 2
First Quarter
Sep 8
Full
Sep 15
Last Quarter
Sep 24
New

Today's Extremes

State Highs State Lows

Community

WunderPhotos

Upload Photos

1,747,715 photos uploaded!

Nearby

Air Quality

  Air Quality AQ Index Pollutant
Yesterday Good
OZONE
Current Good
OZONE
Wednesday Unhealthy for Sensitive Groups
OZONE
Wednesday Moderate
PM2.5

Snow Depth

Station Depth Elevation
No new snow has been reported.

Earthquake Activity

City Distance Mag. Time & Date
No recent earthquake activity has been reported nearby.
Minimum magnitude displayed is 2.5.

Coastal Water Temperatures

Place Temperature
Kings Point, NY 73.9 °F
Bridgeport, CT 75.9 °F

Nearby Weather Stations